Terminal Aerodrome Forecast
Issued by NWS Jackson, MS

Home | Current Version | Previous Version | Text Only | Print | Product List | Glossary On
Versions: 1 2 3 4 5 6 7 8 9 10 11 12 13 14 15 16
238
FTUS44 KJAN 060540
TAFJAN
TAF
KJAN 060540Z 0606/0706 25005KT P6SM VCSH BKN005 OVC025
     FM060800 28008KT 4SM BR OVC003
     FM061800 33005KT P6SM OVC007
     FM062100 33006KT P6SM OVC007=

USA.gov is the U.S. government's official web portal to all federal, state and local government web resources and services.